Time,TemperatureF,DewpointF,PressureIn,WindDirection,WindDirectionDegrees,WindSpeedMPH,WindSpeedGustMPH,Humidity,HourlyPrecipIn,Conditions,Clouds,dailyrainin,SoftwareType,DateUTC
2013-07-12 00:09:00,63.9,63.3,29.85,North,0,0.0,-999.0,98,-99.99,,,0.00,Acu-Link.com,2013-07-12 04:09:00,
2013-07-12 00:24:00,63.7,63.1,29.85,NNE,22,0.0,-999.0,98,-99.99,,,0.00,Acu-Link.com,2013-07-12 04:24:00,
2013-07-12 00:40:00,63.3,62.7,29.85,North,0,0.0,-999.0,98,-99.99,,,0.00,Acu-Link.com,2013-07-12 04:40:00,
2013-07-12 00:55:00,63.0,62.4,29.85,North,0,0.0,-999.0,98,-99.99,,,0.00,Acu-Link.com,2013-07-12 04:55:00,
2013-07-12 01:11:00,62.6,62.0,29.86,NNW,337,0.0,-999.0,98,-99.99,,,0.00,Acu-Link.com,2013-07-12 05:11:00,
2013-07-12 01:33:00,62.4,61.8,29.86,NNE,22,0.0,-999.0,98,-99.99,,,0.00,Acu-Link.com,2013-07-12 05:33:00,
2013-07-12 01:49:00,62.2,61.6,29.87,NNW,337,0.0,-999.0,98,-99.99,,,0.00,Acu-Link.com,2013-07-12 05:49:00,
2013-07-12 02:05:00,62.4,61.8,29.88,NNW,337,0.0,-999.0,98,-99.99,,,0.00,Acu-Link.com,2013-07-12 06:05:00,
2013-07-12 02:20:00,62.2,61.6,29.88,NNW,337,0.0,-999.0,98,-99.99,,,0.00,Acu-Link.com,2013-07-12 06:20:00,
2013-07-12 02:36:00,62.4,61.8,29.89,NNW,337,0.0,-999.0,98,-99.99,,,0.00,Acu-Link.com,2013-07-12 06:36:00,
2013-07-12 02:59:00,62.2,61.6,29.88,North,0,0.0,-999.0,98,-99.99,,,0.00,Acu-Link.com,2013-07-12 06:59:00,
2013-07-12 03:18:00,62.6,62.0,29.88,North,0,0.0,-999.0,98,-99.99,,,0.00,Acu-Link.com,2013-07-12 07:18:00,
2013-07-12 03:41:00,62.6,62.0,29.89,North,0,0.0,-999.0,98,-99.99,,,0.00,Acu-Link.com,2013-07-12 07:41:00,
2013-07-12 04:02:00,62.6,62.0,29.89,North,0,0.0,-999.0,98,-99.99,,,0.00,Acu-Link.com,2013-07-12 08:02:00,
2013-07-12 04:20:00,62.4,61.8,29.90,North,0,0.0,-999.0,98,-99.99,,,0.00,Acu-Link.com,2013-07-12 08:20:00,
2013-07-12 04:35:00,62.4,61.8,29.89,NNW,337,0.0,-999.0,98,-99.99,,,0.00,Acu-Link.com,2013-07-12 08:35:00,
2013-07-12 04:57:00,62.2,61.6,29.90,NNW,337,1.7,-999.0,98,-99.99,,,0.00,Acu-Link.com,2013-07-12 08:57:00,
2013-07-12 05:13:00,62.4,61.8,29.91,NNW,337,0.0,-999.0,98,-99.99,,,0.00,Acu-Link.com,2013-07-12 09:13:00,
2013-07-12 05:30:00,62.4,61.8,29.91,NNE,22,0.0,-999.0,98,-99.99,,,0.00,Acu-Link.com,2013-07-12 09:30:00,
2013-07-12 05:46:00,62.2,61.6,29.91,North,0,0.0,-999.0,98,-99.99,,,0.00,Acu-Link.com,2013-07-12 09:46:00,
2013-07-12 06:04:00,62.2,61.6,29.91,North,0,0.0,-999.0,98,-99.99,,,0.00,Acu-Link.com,2013-07-12 10:04:00,
2013-07-12 06:20:00,62.2,61.6,29.91,NNW,337,0.0,-999.0,98,-99.99,,,0.00,Acu-Link.com,2013-07-12 10:20:00,
2013-07-12 06:38:00,62.6,62.0,29.92,NNW,337,0.0,-999.0,98,-99.99,,,0.00,Acu-Link.com,2013-07-12 10:38:00,
2013-07-12 06:57:00,62.6,62.0,29.93,North,0,0.0,-999.0,98,-99.99,,,0.00,Acu-Link.com,2013-07-12 10:57:00,
2013-07-12 07:16:00,63.9,63.3,29.93,North,0,0.0,-999.0,98,-99.99,,,0.00,Acu-Link.com,2013-07-12 11:16:00,
2013-07-12 07:59:00,65.7,65.1,29.94,North,0,1.7,-999.0,98,-99.99,,,0.00,Acu-Link.com,2013-07-12 11:59:00,
2013-07-12 08:14:00,66.4,65.8,29.93,North,0,0.0,-999.0,98,-99.99,,,0.00,Acu-Link.com,2013-07-12 12:14:00,
2013-07-12 09:30:00,67.5,66.9,29.95,NNE,22,1.7,-999.0,98,-99.99,,,0.00,Acu-Link.com,2013-07-12 13:30:00,
2013-07-12 09:46:00,72.7,68.6,29.94,West,270,1.1,-999.0,87,-99.99,,,0.00,Acu-Link.com,2013-07-12 13:46:00,
2013-07-12 10:01:00,72.7,68.6,29.94,SE,135,1.7,-999.0,87,-99.99,,,0.00,Acu-Link.com,2013-07-12 14:01:00,
2013-07-12 10:21:00,74.5,69.0,29.95,SSW,202,1.1,-999.0,83,-99.99,,,0.00,Acu-Link.com,2013-07-12 14:21:00,
2013-07-12 10:37:00,71.6,69.1,29.95,WSW,247,1.7,-999.0,92,-99.99,,,0.00,Acu-Link.com,2013-07-12 14:37:00,
2013-07-12 10:53:00,71.6,69.1,29.94,WNW,292,0.0,-999.0,92,-99.99,,,0.00,Acu-Link.com,2013-07-12 14:53:00,
2013-07-12 11:08:00,72.9,69.8,29.95,ENE,67,1.7,-999.0,90,-99.99,,,0.00,Acu-Link.com,2013-07-12 15:08:00,
2013-07-12 11:23:00,73.9,69.8,29.94,NNE,22,2.7,-999.0,87,-99.99,,,0.00,Acu-Link.com,2013-07-12 15:23:00,
2013-07-12 11:39:00,75.9,70.4,29.94,NNE,22,2.2,-999.0,83,-99.99,,,0.00,Acu-Link.com,2013-07-12 15:39:00,
2013-07-12 12:09:00,75.4,70.2,29.96,WSW,247,1.1,-999.0,84,-99.99,,,0.00,Acu-Link.com,2013-07-12 16:09:00,
2013-07-12 12:27:00,75.9,69.6,29.95,NE,45,1.7,-999.0,81,-99.99,,,0.00,Acu-Link.com,2013-07-12 16:27:00,
2013-07-12 12:42:00,78.1,71.0,29.95,East,90,0.0,-999.0,79,-99.99,,,0.00,Acu-Link.com,2013-07-12 16:42:00,
2013-07-12 12:58:00,79.0,70.0,29.94,East,90,1.7,-999.0,74,-99.99,,,0.00,Acu-Link.com,2013-07-12 16:58:00,
2013-07-12 13:13:00,79.2,70.6,29.94,ENE,67,2.2,-999.0,75,-99.99,,,0.00,Acu-Link.com,2013-07-12 17:13:00,
2013-07-12 13:28:00,77.9,69.3,29.94,East,90,2.2,-999.0,75,-99.99,,,0.00,Acu-Link.com,2013-07-12 17:28:00,
2013-07-12 13:43:00,78.6,69.6,29.94,NNW,337,2.7,-999.0,74,-99.99,,,0.00,Acu-Link.com,2013-07-12 17:43:00,
2013-07-12 13:58:00,78.4,70.2,29.94,WNW,292,2.2,-999.0,76,-99.99,,,0.00,Acu-Link.com,2013-07-12 17:58:00,
2013-07-12 14:13:00,79.2,70.2,29.95,NW,315,3.2,-999.0,74,-99.99,,,0.00,Acu-Link.com,2013-07-12 18:13:00,
2013-07-12 14:59:00,79.7,71.4,29.93,NNW,337,2.2,-999.0,76,-99.99,,,0.00,Acu-Link.com,2013-07-12 18:59:00,
2013-07-12 15:46:00,79.2,71.0,29.94,NNE,22,6.3,-999.0,76,-99.99,,,0.00,Acu-Link.com,2013-07-12 19:46:00,
2013-07-12 16:02:00,78.4,70.2,29.93,ENE,67,2.7,-999.0,76,-99.99,,,0.00,Acu-Link.com,2013-07-12 20:02:00,
2013-07-12 16:17:00,78.8,71.0,29.92,ESE,112,1.7,-999.0,77,-99.99,,,0.00,Acu-Link.com,2013-07-12 20:17:00,
2013-07-12 16:32:00,78.6,70.4,29.93,NE,45,4.7,-999.0,76,-99.99,,,0.00,Acu-Link.com,2013-07-12 20:32:00,
2013-07-12 16:47:00,78.4,70.2,29.93,NNE,22,4.2,-999.0,76,-99.99,,,0.00,Acu-Link.com,2013-07-12 20:47:00,
2013-07-12 17:02:00,78.1,70.3,29.92,NW,315,2.7,-999.0,77,-99.99,,,0.00,Acu-Link.com,2013-07-12 21:02:00,
2013-07-12 17:17:00,78.4,70.2,29.93,NNE,22,3.7,-999.0,76,-99.99,,,0.00,Acu-Link.com,2013-07-12 21:17:00,
2013-07-12 17:33:00,78.3,69.7,29.92,East,90,3.7,-999.0,75,-99.99,,,0.00,Acu-Link.com,2013-07-12 21:33:00,
2013-07-12 17:48:00,78.4,69.8,29.93,NW,315,4.2,-999.0,75,-99.99,,,0.00,Acu-Link.com,2013-07-12 21:48:00,
2013-07-12 18:06:00,78.6,70.0,29.93,North,0,2.2,-999.0,75,-99.99,,,0.00,Acu-Link.com,2013-07-12 22:06:00,
2013-07-12 18:22:00,79.7,70.7,29.92,NNE,22,3.7,-999.0,74,-99.99,,,0.00,Acu-Link.com,2013-07-12 22:22:00,
2013-07-12 18:37:00,79.3,70.7,29.91,NE,45,2.2,-999.0,75,-99.99,,,0.00,Acu-Link.com,2013-07-12 22:37:00,
2013-07-12 18:55:00,78.3,69.3,29.92,NE,45,3.2,-999.0,74,-99.99,,,0.00,Acu-Link.com,2013-07-12 22:55:00,
2013-07-12 19:10:00,77.7,69.5,29.93,North,0,1.7,-999.0,76,-99.99,,,0.00,Acu-Link.com,2013-07-12 23:10:00,
2013-07-12 19:42:00,76.6,68.8,29.93,NE,45,1.7,-999.0,77,-99.99,,,0.00,Acu-Link.com,2013-07-12 23:42:00,
2013-07-12 20:00:00,75.9,68.9,29.94,NNE,22,1.7,-999.0,79,-99.99,,,0.00,Acu-Link.com,2013-07-13 00:00:00,
2013-07-12 20:18:00,75.2,69.3,29.93,NNE,22,0.0,-999.0,82,-99.99,,,0.00,Acu-Link.com,2013-07-13 00:18:00,
2013-07-12 20:33:00,74.1,68.6,29.93,NE,45,1.7,-999.0,83,-99.99,,,0.00,Acu-Link.com,2013-07-13 00:33:00,
2013-07-12 20:48:00,73.6,68.1,29.94,NNE,22,1.1,-999.0,83,-99.99,,,0.00,Acu-Link.com,2013-07-13 00:48:00,
2013-07-12 21:03:00,73.4,67.9,29.93,West,270,1.7,-999.0,83,-99.99,,,0.00,Acu-Link.com,2013-07-13 01:03:00,
2013-07-12 21:20:00,72.5,68.1,29.95,NNE,22,3.2,-999.0,86,-99.99,,,0.00,Acu-Link.com,2013-07-13 01:20:00,
2013-07-12 21:38:00,71.6,67.9,29.95,NNE,22,0.0,-999.0,88,-99.99,,,0.00,Acu-Link.com,2013-07-13 01:38:00,
2013-07-12 21:55:00,70.5,69.9,29.96,North,0,0.0,-999.0,98,-99.99,,,0.00,Acu-Link.com,2013-07-13 01:55:00,
2013-07-12 22:12:00,69.4,68.8,29.96,NE,45,1.7,-999.0,98,-99.99,,,0.00,Acu-Link.com,2013-07-13 02:12:00,
2013-07-12 22:27:00,68.7,68.1,29.98,East,90,0.0,-999.0,98,-99.99,,,0.00,Acu-Link.com,2013-07-13 02:27:00,
2013-07-12 22:58:00,68.4,67.8,29.99,NNW,337,0.0,-999.0,98,-99.99,,,0.02,Acu-Link.com,2013-07-13 02:58:00,
2013-07-12 23:13:00,67.8,67.2,29.99,NNE,22,0.0,-999.0,98,-99.99,,,0.03,Acu-Link.com,2013-07-13 03:13:00,
2013-07-12 23:46:00,67.8,67.2,30.00,NNE,22,0.0,-999.0,98,-99.99,,,0.03,Acu-Link.com,2013-07-13 03:46:00,